sensor_id;sensor_type;location;lat;lon;timestamp;pressure;altitude;pressure_sealevel;temperature;humidity
79221;BME280;72175;52.118;5.406;2024-03-08T00:01:16;102006.31;;;13.11;62.25
79221;BME280;72175;52.118;5.406;2024-03-08T00:03:43;102006.31;;;13.11;62.08
79221;BME280;72175;52.118;5.406;2024-03-08T00:06:09;102008.13;;;13.10;62.01
79221;BME280;72175;52.118;5.406;2024-03-08T00:08:36;102006.31;;;13.11;61.84
79221;BME280;72175;52.118;5.406;2024-03-08T00:11:03;102004.63;;;13.10;62.04
79221;BME280;72175;52.118;5.406;2024-03-08T00:13:29;102006.31;;;13.11;62.26
79221;BME280;72175;52.118;5.406;2024-03-08T00:15:56;102001.13;;;13.09;62.00
79221;BME280;72175;52.118;5.406;2024-03-08T00:18:24;101999.31;;;13.10;62.15
79221;BME280;72175;52.118;5.406;2024-03-08T00:20:50;101996.66;;;13.10;61.87
79221;BME280;72175;52.118;5.406;2024-03-08T00:23:17;101999.31;;;13.10;62.01
79221;BME280;72175;52.118;5.406;2024-03-08T00:25:43;101999.31;;;13.10;61.89
79221;BME280;72175;52.118;5.406;2024-03-08T00:28:10;101999.31;;;13.10;62.06
79221;BME280;72175;52.118;5.406;2024-03-08T00:30:39;101998.47;;;13.09;62.16
79221;BME280;72175;52.118;5.406;2024-03-08T00:33:06;101991.47;;;13.08;61.87
79221;BME280;72175;52.118;5.406;2024-03-08T00:35:33;101996.78;;;13.08;61.94
79221;BME280;72175;52.118;5.406;2024-03-08T00:37:59;101993.16;;;13.09;62.03
79221;BME280;72175;52.118;5.406;2024-03-08T00:40:27;101994.97;;;13.09;62.00
79221;BME280;72175;52.118;5.406;2024-03-08T00:42:55;101992.31;;;13.09;61.75
79221;BME280;72175;52.118;5.406;2024-03-08T00:45:21;101986.16;;;13.08;61.97
79221;BME280;72175;52.118;5.406;2024-03-08T00:47:50;101989.66;;;13.09;61.98
79221;BME280;72175;52.118;5.406;2024-03-08T00:50:16;101986.16;;;13.08;61.92
79221;BME280;72175;52.118;5.406;2024-03-08T00:52:44;101985.31;;;13.08;61.99
79221;BME280;72175;52.118;5.406;2024-03-08T00:55:11;101973.00;;;13.07;61.98
79221;BME280;72175;52.118;5.406;2024-03-08T00:57:37;101965.88;;;13.07;61.81
79221;BME280;72175;52.118;5.406;2024-03-08T01:00:06;101962.38;;;13.07;61.78
79221;BME280;72175;52.118;5.406;2024-03-08T01:02:36;101959.72;;;13.07;61.81
79221;BME280;72175;52.118;5.406;2024-03-08T01:05:03;101961.53;;;13.06;62.00
79221;BME280;72175;52.118;5.406;2024-03-08T01:07:32;101953.53;;;13.06;61.89
79221;BME280;72175;52.118;5.406;2024-03-08T01:09:59;101942.06;;;13.06;61.85
79221;BME280;72175;52.118;5.406;2024-03-08T01:12:27;101939.28;;;13.07;61.46
79221;BME280;72175;52.118;5.406;2024-03-08T01:14:53;101948.22;;;13.06;61.62
79221;BME280;72175;52.118;5.406;2024-03-08T01:17:20;101939.41;;;13.06;61.58
79221;BME280;72175;52.118;5.406;2024-03-08T01:19:46;101935.78;;;13.07;61.84
79221;BME280;72175;52.118;5.406;2024-03-08T01:22:13;101934.09;;;13.06;61.80
79221;BME280;72175;52.118;5.406;2024-03-08T01:24:39;101929.63;;;13.06;61.85
79221;BME280;72175;52.118;5.406;2024-03-08T01:27:06;101928.78;;;13.06;61.64
79221;BME280;72175;52.118;5.406;2024-03-08T01:29:32;101927.94;;;13.05;61.82
79221;BME280;72175;52.118;5.406;2024-03-08T01:31:59;101920.81;;;13.06;61.53
79221;BME280;72175;52.118;5.406;2024-03-08T01:34:27;101920.09;;;13.04;61.56
79221;BME280;72175;52.118;5.406;2024-03-08T01:36:55;101914.78;;;13.04;61.60
79221;BME280;72175;52.118;5.406;2024-03-08T01:39:24;101909.47;;;13.04;61.91
79221;BME280;72175;52.118;5.406;2024-03-08T01:41:51;101912.97;;;13.04;61.73
79221;BME280;72175;52.118;5.406;2024-03-08T01:44:17;101908.50;;;13.05;61.45
79221;BME280;72175;52.118;5.406;2024-03-08T01:46:45;101904.16;;;13.04;61.37
79221;BME280;72175;52.118;5.406;2024-03-08T01:49:12;101900.66;;;13.03;61.57
79221;BME280;72175;52.118;5.406;2024-03-08T01:51:40;101898.97;;;13.02;61.37
79221;BME280;72175;52.118;5.406;2024-03-08T01:54:08;101895.34;;;13.03;61.64
79221;BME280;72175;52.118;5.406;2024-03-08T01:56:40;101895.34;;;13.03;61.54
79221;BME280;72175;52.118;5.406;2024-03-08T01:59:07;101890.16;;;13.02;61.58
79221;BME280;72175;52.118;5.406;2024-03-08T02:01:34;101891.00;;;13.02;61.46
79221;BME280;72175;52.118;5.406;2024-03-08T02:04:00;101888.34;;;13.02;61.58
79221;BME280;72175;52.118;5.406;2024-03-08T02:06:27;101892.81;;;13.02;61.39
79221;BME280;72175;52.118;5.406;2024-03-08T02:08:54;101885.69;;;13.02;61.24
79221;BME280;72175;52.118;5.406;2024-03-08T02:11:20;101882.19;;;13.02;61.56
79221;BME280;72175;52.118;5.406;2024-03-08T02:13:47;101891.00;;;13.02;61.29
79221;BME280;72175;52.118;5.406;2024-03-08T02:16:20;101888.47;;;13.01;61.33
79221;BME280;72175;52.118;5.406;2024-03-08T02:18:47;101880.50;;;13.01;61.62
79221;BME280;72175;52.118;5.406;2024-03-08T02:21:16;101868.19;;;13.00;61.53
79221;BME280;72175;52.118;5.406;2024-03-08T02:23:44;101874.34;;;13.00;61.52
79221;BME280;72175;52.118;5.406;2024-03-08T02:26:13;101870.84;;;13.00;61.45
79221;BME280;72175;52.118;5.406;2024-03-08T02:28:39;101870.84;;;13.00;61.23
79221;BME280;72175;52.118;5.406;2024-03-08T02:31:06;101864.69;;;12.99;61.61
79221;BME280;72175;52.118;5.406;2024-03-08T02:33:34;101864.69;;;12.99;61.20
79221;BME280;72175;52.118;5.406;2024-03-08T02:36:01;101862.03;;;12.99;61.18
79221;BME280;72175;52.118;5.406;2024-03-08T02:38:28;101854.22;;;12.98;61.38
79221;BME280;72175;52.118;5.406;2024-03-08T02:40:54;101853.25;;;12.99;61.07
79221;BME280;72175;52.118;5.406;2024-03-08T02:43:22;101855.06;;;12.98;61.49
79221;BME280;72175;52.118;5.406;2024-03-08T02:45:50;101847.22;;;12.96;61.38
79221;BME280;72175;52.118;5.406;2024-03-08T02:48:16;101841.91;;;12.96;61.58
79221;BME280;72175;52.118;5.406;2024-03-08T02:50:43;101841.06;;;12.96;61.17
79221;BME280;72175;52.118;5.406;2024-03-08T02:53:12;101833.09;;;12.96;61.12
79221;BME280;72175;52.118;5.406;2024-03-08T02:55:39;101829.59;;;12.95;61.24
79221;BME280;72175;52.118;5.406;2024-03-08T02:58:07;101833.94;;;12.96;61.50
79221;BME280;72175;52.118;5.406;2024-03-08T03:00:38;101828.75;;;12.95;61.14
79221;BME280;72175;52.118;5.406;2024-03-08T03:03:08;101836.72;;;12.95;61.02
79221;BME280;72175;52.118;5.406;2024-03-08T03:05:35;101824.28;;;12.95;61.45
79221;BME280;72175;52.118;5.406;2024-03-08T03:08:02;101823.44;;;12.95;61.16
79221;BME280;72175;52.118;5.406;2024-03-08T03:10:30;101818.25;;;12.93;61.00
79221;BME280;72175;52.118;5.406;2024-03-08T03:12:57;101819.09;;;12.94;61.05
79221;BME280;72175;52.118;5.406;2024-03-08T03:15:24;101814.63;;;12.94;61.24
79221;BME280;72175;52.118;5.406;2024-03-08T03:17:53;101808.59;;;12.92;61.31
79221;BME280;72175;52.118;5.406;2024-03-08T03:20:21;101811.13;;;12.94;60.85
79221;BME280;72175;52.118;5.406;2024-03-08T03:22:59;101811.97;;;12.94;61.08
79221;BME280;72175;52.118;5.406;2024-03-08T03:25:28;101810.41;;;12.92;61.02
79221;BME280;72175;52.118;5.406;2024-03-08T03:28:02;101808.59;;;12.92;61.12
79221;BME280;72175;52.118;5.406;2024-03-08T03:30:29;101800.63;;;12.92;61.02
79221;BME280;72175;52.118;5.406;2024-03-08T03:33:02;101793.63;;;12.91;60.93
79221;BME280;72175;52.118;5.406;2024-03-08T03:35:34;101799.78;;;12.92;61.22
79221;BME280;72175;52.118;5.406;2024-03-08T03:38:00;101794.59;;;12.90;60.95
79221;BME280;72175;52.118;5.406;2024-03-08T03:40:30;101797.25;;;12.90;61.06
79221;BME280;72175;52.118;5.406;2024-03-08T03:42:57;101797.25;;;12.90;60.71
79221;BME280;72175;52.118;5.406;2024-03-08T03:45:24;101791.94;;;12.90;61.12
79221;BME280;72175;52.118;5.406;2024-03-08T03:47:51;101783.97;;;12.90;60.80
79221;BME280;72175;52.118;5.406;2024-03-08T03:50:19;101793.75;;;12.90;60.78
79221;BME280;72175;52.118;5.406;2024-03-08T03:52:46;101789.41;;;12.89;60.89
79221;BME280;72175;52.118;5.406;2024-03-08T03:55:14;101785.78;;;12.90;60.79
79221;BME280;72175;52.118;5.406;2024-03-08T03:57:40;101789.41;;;12.89;61.04
79221;BME280;72175;52.118;5.406;2024-03-08T04:00:07;101783.25;;;12.88;60.62
79221;BME280;72175;52.118;5.406;2024-03-08T04:02:38;101784.94;;;12.89;60.74
79221;BME280;72175;52.118;5.406;2024-03-08T04:05:09;101783.25;;;12.88;60.81
79221;BME280;72175;52.118;5.406;2024-03-08T04:07:36;101779.75;;;12.88;60.75
79221;BME280;72175;52.118;5.406;2024-03-08T04:10:04;101777.09;;;12.88;60.76
79221;BME280;72175;52.118;5.406;2024-03-08T04:12:33;101776.25;;;12.87;60.84
79221;BME280;72175;52.118;5.406;2024-03-08T04:15:00;101770.94;;;12.87;60.65
79221;BME280;72175;52.118;5.406;2024-03-08T04:17:27;101769.25;;;12.86;60.83
79221;BME280;72175;52.118;5.406;2024-03-08T04:19:53;101771.91;;;12.86;60.73
79221;BME280;72175;52.118;5.406;2024-03-08T04:22:20;101760.44;;;12.86;60.52
79221;BME280;72175;52.118;5.406;2024-03-08T04:24:47;101769.25;;;12.86;60.66
79221;BME280;72175;52.118;5.406;2024-03-08T04:27:14;101763.09;;;12.86;60.68
79221;BME280;72175;52.118;5.406;2024-03-08T04:29:41;101763.09;;;12.86;60.67
79221;BME280;72175;52.118;5.406;2024-03-08T04:32:10;101766.59;;;12.86;60.83
79221;BME280;72175;52.118;5.406;2024-03-08T04:34:40;101761.41;;;12.85;60.76
79221;BME280;72175;52.118;5.406;2024-03-08T04:37:11;101755.25;;;12.84;60.53
79221;BME280;72175;52.118;5.406;2024-03-08T04:39:39;101760.56;;;12.84;60.49
79221;BME280;72175;52.118;5.406;2024-03-08T04:42:07;101759.72;;;12.84;60.77
79221;BME280;72175;52.118;5.406;2024-03-08T04:44:36;101757.06;;;12.84;60.72
79221;BME280;72175;52.118;5.406;2024-03-08T04:47:07;101757.06;;;12.84;60.33
79221;BME280;72175;52.118;5.406;2024-03-08T04:49:34;101761.53;;;12.83;60.54
79221;BME280;72175;52.118;5.406;2024-03-08T04:52:02;101753.56;;;12.83;60.60
79221;BME280;72175;52.118;5.406;2024-03-08T04:54:29;101753.56;;;12.83;60.77
79221;BME280;72175;52.118;5.406;2024-03-08T04:56:56;101750.06;;;12.83;60.57
79221;BME280;72175;52.118;5.406;2024-03-08T04:59:23;101746.59;;;12.82;60.40
79221;BME280;72175;52.118;5.406;2024-03-08T05:01:50;101743.94;;;12.82;60.41
79221;BME280;72175;52.118;5.406;2024-03-08T05:04:17;101747.41;;;12.83;60.50
79221;BME280;72175;52.118;5.406;2024-03-08T05:06:44;101743.22;;;12.80;60.62
79221;BME280;72175;52.118;5.406;2024-03-08T05:09:10;101740.56;;;12.80;60.38
79221;BME280;72175;52.118;5.406;2024-03-08T05:11:44;101744.91;;;12.81;60.63
79221;BME280;72175;52.118;5.406;2024-03-08T05:14:11;101750.22;;;12.81;60.19
79221;BME280;72175;52.118;5.406;2024-03-08T05:16:44;101744.06;;;12.81;60.36
79221;BME280;72175;52.118;5.406;2024-03-08T05:19:19;101740.69;;;12.79;60.66
79221;BME280;72175;52.118;5.406;2024-03-08T05:21:47;101739.72;;;12.80;60.52
79221;BME280;72175;52.118;5.406;2024-03-08T05:24:14;101737.06;;;12.80;60.70
79221;BME280;72175;52.118;5.406;2024-03-08T05:26:42;101734.41;;;12.80;60.45
79221;BME280;72175;52.118;5.406;2024-03-08T05:29:09;101731.75;;;12.80;60.24
79221;BME280;72175;52.118;5.406;2024-03-08T05:31:51;101726.44;;;12.80;60.29
79221;BME280;72175;52.118;5.406;2024-03-08T05:34:21;101726.59;;;12.78;60.25
79221;BME280;72175;52.118;5.406;2024-03-08T05:36:48;101728.41;;;12.78;60.30
79221;BME280;72175;52.118;5.406;2024-03-08T05:39:18;101723.94;;;12.78;60.32
79221;BME280;72175;52.118;5.406;2024-03-08T05:41:46;101723.09;;;12.78;60.26
79221;BME280;72175;52.118;5.406;2024-03-08T05:44:13;101731.88;;;12.78;60.15
79221;BME280;72175;52.118;5.406;2024-03-08T05:46:40;101722.25;;;12.77;60.25
79221;BME280;72175;52.118;5.406;2024-03-08T05:49:07;101720.56;;;12.76;60.45
79221;BME280;72175;52.118;5.406;2024-03-08T05:51:38;101720.56;;;12.76;60.18
79221;BME280;72175;52.118;5.406;2024-03-08T05:54:07;101716.09;;;12.77;60.11
79221;BME280;72175;52.118;5.406;2024-03-08T05:56:40;101717.06;;;12.76;60.42
79221;BME280;72175;52.118;5.406;2024-03-08T05:59:12;101715.25;;;12.76;60.33
79221;BME280;72175;52.118;5.406;2024-03-08T06:01:39;101705.59;;;12.75;60.12
79221;BME280;72175;52.118;5.406;2024-03-08T06:04:09;101708.25;;;12.75;60.06
79221;BME280;72175;52.118;5.406;2024-03-08T06:06:38;101697.63;;;12.75;60.05
79221;BME280;72175;52.118;5.406;2024-03-08T06:09:04;101702.09;;;12.75;60.22
79221;BME280;72175;52.118;5.406;2024-03-08T06:11:38;101704.88;;;12.73;60.21
79221;BME280;72175;52.118;5.406;2024-03-08T06:14:04;101703.06;;;12.74;60.20
79221;BME280;72175;52.118;5.406;2024-03-08T06:16:32;101704.88;;;12.73;60.11
79221;BME280;72175;52.118;5.406;2024-03-08T06:19:00;101704.75;;;12.75;60.21
79221;BME280;72175;52.118;5.406;2024-03-08T06:21:28;101703.91;;;12.74;60.08
79221;BME280;72175;52.118;5.406;2024-03-08T06:23:55;101701.38;;;12.73;59.90
79221;BME280;72175;52.118;5.406;2024-03-08T06:26:22;101696.91;;;12.73;60.07
79221;BME280;72175;52.118;5.406;2024-03-08T06:28:48;101700.53;;;12.72;60.02
79221;BME280;72175;52.118;5.406;2024-03-08T06:31:15;101705.84;;;12.72;59.92
79221;BME280;72175;52.118;5.406;2024-03-08T06:33:41;101703.19;;;12.72;60.06
79221;BME280;72175;52.118;5.406;2024-03-08T06:36:11;101701.38;;;12.73;60.03
79221;BME280;72175;52.118;5.406;2024-03-08T06:38:38;101697.03;;;12.72;60.28
79221;BME280;72175;52.118;5.406;2024-03-08T06:41:09;101695.22;;;12.72;59.76
79221;BME280;72175;52.118;5.406;2024-03-08T06:43:45;101686.41;;;12.72;59.88
79221;BME280;72175;52.118;5.406;2024-03-08T06:46:14;101688.22;;;12.71;60.13
79221;BME280;72175;52.118;5.406;2024-03-08T06:48:41;101693.53;;;12.71;60.03
79221;BME280;72175;52.118;5.406;2024-03-08T06:51:08;101690.88;;;12.71;59.82
79221;BME280;72175;52.118;5.406;2024-03-08T06:53:34;101692.69;;;12.71;60.14
79221;BME280;72175;52.118;5.406;2024-03-08T06:56:05;101691.84;;;12.70;59.80
79221;BME280;72175;52.118;5.406;2024-03-08T06:58:31;101687.38;;;12.71;59.82
79221;BME280;72175;52.118;5.406;2024-03-08T07:00:59;101680.38;;;12.70;60.08
79221;BME280;72175;52.118;5.406;2024-03-08T07:03:27;101695.47;;;12.69;59.91
79221;BME280;72175;52.118;5.406;2024-03-08T07:05:56;101684.84;;;12.69;59.93
79221;BME280;72175;52.118;5.406;2024-03-08T07:08:25;101685.84;;;12.68;59.68
79221;BME280;72175;52.118;5.406;2024-03-08T07:10:54;101683.88;;;12.70;59.96
79221;BME280;72175;52.118;5.406;2024-03-08T07:13:20;101688.47;;;12.68;59.73
79221;BME280;72175;52.118;5.406;2024-03-08T07:15:47;101686.66;;;12.69;59.75
79221;BME280;72175;52.118;5.406;2024-03-08T07:18:14;101686.66;;;12.69;59.66
79221;BME280;72175;52.118;5.406;2024-03-08T07:20:41;101681.38;;;12.69;59.77
79221;BME280;72175;52.118;5.406;2024-03-08T07:23:10;101675.22;;;12.68;59.66
79221;BME280;72175;52.118;5.406;2024-03-08T07:25:37;101682.06;;;12.71;59.86
79221;BME280;72175;52.118;5.406;2024-03-08T07:28:05;101667.94;;;12.70;59.59
79221;BME280;72175;52.118;5.406;2024-03-08T07:30:34;101666.97;;;12.71;59.21
79221;BME280;72175;52.118;5.406;2024-03-08T07:36:04;101667.56;;;12.75;59.47
79221;BME280;72175;52.118;5.406;2024-03-08T07:38:31;101666.59;;;12.76;59.71
79221;BME280;72175;52.118;5.406;2024-03-08T07:40:57;101661.28;;;12.76;59.41
79221;BME280;72175;52.118;5.406;2024-03-08T07:43:25;101654.03;;;12.78;59.29
79221;BME280;72175;52.118;5.406;2024-03-08T07:45:51;101661.03;;;12.79;59.53
79221;BME280;72175;52.118;5.406;2024-03-08T07:48:19;101650.28;;;12.80;59.13
79221;BME280;72175;52.118;5.406;2024-03-08T07:50:46;101657.09;;;12.83;58.94
79221;BME280;72175;52.118;5.406;2024-03-08T07:53:12;101654.31;;;12.84;59.14
79221;BME280;72175;52.118;5.406;2024-03-08T07:55:39;101652.38;;;12.86;59.06
79221;BME280;72175;52.118;5.406;2024-03-08T07:58:08;101653.22;;;12.87;58.93
79221;BME280;72175;52.118;5.406;2024-03-08T08:00:37;101646.09;;;12.87;58.89
79221;BME280;72175;52.118;5.406;2024-03-08T08:03:04;101644.16;;;12.89;58.95
79221;BME280;72175;52.118;5.406;2024-03-08T08:05:31;101641.50;;;12.89;58.80
79221;BME280;72175;52.118;5.406;2024-03-08T08:08:10;101642.22;;;12.91;59.09
79221;BME280;72175;52.118;5.406;2024-03-08T08:10:37;101636.06;;;12.91;59.12
79221;BME280;72175;52.118;5.406;2024-03-08T08:13:04;101635.91;;;12.92;59.03
79221;BME280;72175;52.118;5.406;2024-03-08T08:15:31;101627.94;;;12.92;58.91
79221;BME280;72175;52.118;5.406;2024-03-08T08:18:00;101638.56;;;12.92;59.10
79221;BME280;72175;52.118;5.406;2024-03-08T08:20:27;101630.47;;;12.94;59.01
79221;BME280;72175;52.118;5.406;2024-03-08T08:22:55;101627.81;;;12.94;58.85
79221;BME280;72175;52.118;5.406;2024-03-08T08:25:22;101620.69;;;12.94;58.46
79221;BME280;72175;52.118;5.406;2024-03-08T08:27:50;101618.03;;;12.94;58.66
79221;BME280;72175;52.118;5.406;2024-03-08T08:30:17;101616.09;;;12.96;58.35
79221;BME280;72175;52.118;5.406;2024-03-08T08:32:43;101617.78;;;12.98;58.46
79221;BME280;72175;52.118;5.406;2024-03-08T08:35:10;101611.47;;;12.99;58.32
79221;BME280;72175;52.118;5.406;2024-03-08T08:37:39;101611.31;;;13.00;58.73
79221;BME280;72175;52.118;5.406;2024-03-08T08:40:06;101615.66;;;13.01;58.19
79221;BME280;72175;52.118;5.406;2024-03-08T08:42:37;101599.59;;;13.03;58.12
79221;BME280;72175;52.118;5.406;2024-03-08T08:45:07;101592.59;;;13.02;58.30
79221;BME280;72175;52.118;5.406;2024-03-08T08:47:46;101593.44;;;13.02;58.25
79221;BME280;72175;52.118;5.406;2024-03-08T08:50:13;101590.78;;;13.02;58.33
79221;BME280;72175;52.118;5.406;2024-03-08T08:52:40;101587.16;;;13.03;58.28
79221;BME280;72175;52.118;5.406;2024-03-08T08:55:07;101592.47;;;13.03;58.15
79221;BME280;72175;52.118;5.406;2024-03-08T08:57:34;101583.66;;;13.03;58.34
79221;BME280;72175;52.118;5.406;2024-03-08T09:00:02;101579.19;;;13.03;58.06
79221;BME280;72175;52.118;5.406;2024-03-08T09:02:33;101573.88;;;13.03;58.26
79221;BME280;72175;52.118;5.406;2024-03-08T09:05:00;101574.72;;;13.04;57.93
79221;BME280;72175;52.118;5.406;2024-03-08T09:07:28;101574.72;;;13.04;58.15
79221;BME280;72175;52.118;5.406;2024-03-08T09:09:55;101569.41;;;13.04;58.01
79221;BME280;72175;52.118;5.406;2024-03-08T09:12:26;101566.72;;;13.04;57.89
79221;BME280;72175;52.118;5.406;2024-03-08T09:14:52;101559.59;;;13.04;57.73
79221;BME280;72175;52.118;5.406;2024-03-08T09:17:19;101557.78;;;13.05;57.82
79221;BME280;72175;52.118;5.406;2024-03-08T09:19:49;101560.44;;;13.05;57.75
79221;BME280;72175;52.118;5.406;2024-03-08T09:22:21;101560.44;;;13.05;57.54
79221;BME280;72175;52.118;5.406;2024-03-08T09:24:48;101559.47;;;13.06;57.89
79221;BME280;72175;52.118;5.406;2024-03-08T09:27:15;101548.84;;;13.06;57.71
79221;BME280;72175;52.118;5.406;2024-03-08T09:29:42;101545.22;;;13.07;57.52
79221;BME280;72175;52.118;5.406;2024-03-08T09:32:09;101535.56;;;13.06;57.94
79221;BME280;72175;52.118;5.406;2024-03-08T09:34:37;101545.22;;;13.07;57.90
79221;BME280;72175;52.118;5.406;2024-03-08T09:37:04;101531.94;;;13.07;57.82
79221;BME280;72175;52.118;5.406;2024-03-08T09:39:31;101532.78;;;13.07;57.64
79221;BME280;72175;52.118;5.406;2024-03-08T09:42:00;101527.31;;;13.09;57.42
79221;BME280;72175;52.118;5.406;2024-03-08T09:44:27;101519.34;;;13.09;57.69
79221;BME280;72175;52.118;5.406;2024-03-08T09:46:55;101507.88;;;13.08;57.65
79221;BME280;72175;52.118;5.406;2024-03-08T09:49:22;101513.06;;;13.10;57.62
79221;BME280;72175;52.118;5.406;2024-03-08T09:51:50;101509.44;;;13.11;57.71
79221;BME280;72175;52.118;5.406;2024-03-08T09:54:19;101500.47;;;13.12;57.67
79221;BME280;72175;52.118;5.406;2024-03-08T09:56:51;101499.50;;;13.13;57.94
79221;BME280;72175;52.118;5.406;2024-03-08T09:59:18;101495.88;;;13.14;57.77
79221;BME280;72175;52.118;5.406;2024-03-08T10:01:54;101498.41;;;13.15;57.90
79221;BME280;72175;52.118;5.406;2024-03-08T10:04:22;101489.44;;;13.16;57.66
79221;BME280;72175;52.118;5.406;2024-03-08T10:06:49;101484.84;;;13.18;57.88
79221;BME280;72175;52.118;5.406;2024-03-08T10:09:16;101481.06;;;13.21;57.82
79221;BME280;72175;52.118;5.406;2024-03-08T10:11:43;101484.44;;;13.23;57.62
79221;BME280;72175;52.118;5.406;2024-03-08T10:14:10;101480.94;;;13.22;57.66
79221;BME280;72175;52.118;5.406;2024-03-08T10:16:39;101468.47;;;13.23;57.59
79221;BME280;72175;52.118;5.406;2024-03-08T10:19:06;101471.84;;;13.25;57.63
79221;BME280;72175;52.118;5.406;2024-03-08T10:21:34;101469.88;;;13.27;58.08
79221;BME280;72175;52.118;5.406;2024-03-08T10:24:02;101459.25;;;13.27;57.63
79221;BME280;72175;52.118;5.406;2024-03-08T10:26:30;101451.97;;;13.29;57.93
79221;BME280;72175;52.118;5.406;2024-03-08T10:28:56;101454.50;;;13.30;58.06
79221;BME280;72175;52.118;5.406;2024-03-08T10:31:24;101442.06;;;13.31;58.12
79221;BME280;72175;52.118;5.406;2024-03-08T10:33:51;101445.38;;;13.33;58.01
79221;BME280;72175;52.118;5.406;2024-03-08T10:36:17;101438.09;;;13.35;57.97
79221;BME280;72175;52.118;5.406;2024-03-08T10:38:45;101434.47;;;13.36;57.88
79221;BME280;72175;52.118;5.406;2024-03-08T10:41:14;101430.84;;;13.37;58.08
79221;BME280;72175;52.118;5.406;2024-03-08T10:46:30;101412.94;;;13.39;58.39
79221;BME280;72175;52.118;5.406;2024-03-08T10:49:00;101416.44;;;13.40;58.33
79221;BME280;72175;52.118;5.406;2024-03-08T10:51:30;101413.63;;;13.41;58.38
79221;BME280;72175;52.118;5.406;2024-03-08T10:53:57;101409.16;;;13.42;58.34
79221;BME280;72175;52.118;5.406;2024-03-08T10:56:25;101405.50;;;13.43;58.30
79221;BME280;72175;52.118;5.406;2024-03-08T10:58:55;101393.06;;;13.43;58.57
79221;BME280;72175;52.118;5.406;2024-03-08T11:01:25;101385.94;;;13.44;58.15
79221;BME280;72175;52.118;5.406;2024-03-08T11:03:52;101387.59;;;13.45;58.00
79221;BME280;72175;52.118;5.406;2024-03-08T11:06:31;101377.81;;;13.45;58.14
79221;BME280;72175;52.118;5.406;2024-03-08T11:09:35;101369.00;;;13.45;57.99
79221;BME280;72175;52.118;5.406;2024-03-08T11:12:27;101364.53;;;13.45;57.68
79221;BME280;72175;52.118;5.406;2024-03-08T11:15:00;101356.53;;;13.45;58.05
79221;BME280;72175;52.118;5.406;2024-03-08T11:20:19;101346.75;;;13.46;57.51
79221;BME280;72175;52.118;5.406;2024-03-08T11:23:04;101344.94;;;13.46;57.38
79221;BME280;72175;52.118;5.406;2024-03-08T11:25:38;101331.78;;;13.45;57.79
79221;BME280;72175;52.118;5.406;2024-03-08T11:28:13;101327.31;;;13.45;57.46
79221;BME280;72175;52.118;5.406;2024-03-08T11:30:44;101322.81;;;13.46;57.40
79221;BME280;72175;52.118;5.406;2024-03-08T11:33:16;101313.19;;;13.45;56.89
79221;BME280;72175;52.118;5.406;2024-03-08T11:35:43;101308.69;;;13.45;57.02
79221;BME280;72175;52.118;5.406;2024-03-08T11:38:12;101306.03;;;13.45;57.04
79221;BME280;72175;52.118;5.406;2024-03-08T11:40:39;101299.75;;;13.46;56.54
79221;BME280;72175;52.118;5.406;2024-03-08T11:43:06;101294.41;;;13.46;56.78
79221;BME280;72175;52.118;5.406;2024-03-08T11:45:36;101289.09;;;13.46;56.31
79221;BME280;72175;52.118;5.406;2024-03-08T11:48:04;101294.41;;;13.46;56.62
79221;BME280;72175;52.118;5.406;2024-03-08T11:50:31;101286.59;;;13.45;56.32
79221;BME280;72175;52.118;5.406;2024-03-08T11:53:03;101283.78;;;13.46;56.24
79221;BME280;72175;52.118;5.406;2024-03-08T11:55:31;101276.78;;;13.45;55.94
79221;BME280;72175;52.118;5.406;2024-03-08T11:58:03;101270.50;;;13.46;56.25
79221;BME280;72175;52.118;5.406;2024-03-08T12:00:37;101274.00;;;13.47;56.48
79221;BME280;72175;52.118;5.406;2024-03-08T12:03:08;101268.69;;;13.47;56.12
79221;BME280;72175;52.118;5.406;2024-03-08T12:05:38;101263.34;;;13.47;56.46
79221;BME280;72175;52.118;5.406;2024-03-08T12:08:05;101259.88;;;13.46;56.88
79221;BME280;72175;52.118;5.406;2024-03-08T12:10:33;101257.19;;;13.46;56.55
79221;BME280;72175;52.118;5.406;2024-03-08T12:13:01;101246.56;;;13.46;56.98
79221;BME280;72175;52.118;5.406;2024-03-08T12:15:29;101249.06;;;13.48;56.86
79221;BME280;72175;52.118;5.406;2024-03-08T12:17:59;101244.56;;;13.48;56.58
79221;BME280;72175;52.118;5.406;2024-03-08T12:20:28;101241.91;;;13.48;56.80
79221;BME280;72175;52.118;5.406;2024-03-08T12:22:58;101231.13;;;13.50;57.02
79221;BME280;72175;52.118;5.406;2024-03-08T12:25:33;101238.13;;;13.51;56.67
79221;BME280;72175;52.118;5.406;2024-03-08T12:28:09;101231.97;;;13.50;56.94
79221;BME280;72175;52.118;5.406;2024-03-08T12:30:47;101226.66;;;13.50;56.81
79221;BME280;72175;52.118;5.406;2024-03-08T12:33:14;101221.34;;;13.50;56.90
79221;BME280;72175;52.118;5.406;2024-03-08T12:35:50;101218.69;;;13.50;57.32
79221;BME280;72175;52.118;5.406;2024-03-08T12:38:17;101209.88;;;13.50;57.06
79221;BME280;72175;52.118;5.406;2024-03-08T12:40:43;101198.41;;;13.49;57.14
79221;BME280;72175;52.118;5.406;2024-03-08T12:43:10;101201.91;;;13.50;57.20
79221;BME280;72175;52.118;5.406;2024-03-08T12:45:38;101191.25;;;13.50;57.18
79221;BME280;72175;52.118;5.406;2024-03-08T12:48:12;101192.09;;;13.50;57.63
79221;BME280;72175;52.118;5.406;2024-03-08T12:50:41;101193.91;;;13.50;57.24
79221;BME280;72175;52.118;5.406;2024-03-08T12:53:14;101193.06;;;13.49;57.08
79221;BME280;72175;52.118;5.406;2024-03-08T12:55:41;101192.94;;;13.51;57.28
79221;BME280;72175;52.118;5.406;2024-03-08T12:58:07;101191.25;;;13.50;57.67
79221;BME280;72175;52.118;5.406;2024-03-08T13:00:34;101184.97;;;13.51;57.60
79221;BME280;72175;52.118;5.406;2024-03-08T13:03:09;101181.47;;;13.50;57.92
79221;BME280;72175;52.118;5.406;2024-03-08T13:05:38;101186.63;;;13.52;57.83